Time;durP1;ratioP1;P1;durP2;ratioP2;P2;SDS_P1;SDS_P2;PMS_P1;PMS_P2;Temp;Humidity;BMP_temperature;BMP_pressure;BME280_temperature;BME280_humidity;BME280_pressure;Samples;Min_cycle;Max_cycle;Signal;HPM_P1;HPM_P2
2023/03/12 00:01:19;;;;;;;2.22;0.90;;;;;;;;;;6133628;23;20358;-73
2023/03/12 00:03:46;;;;;;;4.00;1.23;;;;;;;;;;6133632;23;20077;-73
2023/03/12 00:06:12;;;;;;;2.55;1.10;;;;;;;;;;6133486;23;20004;-73
2023/03/12 00:08:38;;;;;;;3.05;1.13;;;;;;;;;;6133429;23;20002;-72
2023/03/12 00:11:09;;;;;;;2.55;1.00;;;;;;;;;;6133365;23;20313;-73
2023/03/12 00:13:34;;;;;;;3.78;1.10;;;;;;;;;;6133411;23;20002;-72
2023/03/12 00:16:14;;;;;;;1.38;0.95;;;;;;;;;;6133487;23;19998;-73
2023/03/12 00:18:41;;;;;;;1.30;0.90;;;;;;;;;;6133229;23;20029;-74
2023/03/12 00:21:07;;;;;;;4.32;0.90;;;;;;;;;;6133569;23;19998;-75
2023/03/12 00:23:33;;;;;;;1.65;0.80;;;;;;;;;;6133618;23;20053;-75
2023/03/12 00:26:04;;;;;;;1.63;0.80;;;;;;;;;;6133613;23;19998;-74
2023/03/12 00:28:30;;;;;;;2.45;0.70;;;;;;;;;;6134663;23;20064;-74
2023/03/12 00:30:57;;;;;;;1.30;0.85;;;;;;;;;;6135040;23;20323;-74
2023/03/12 00:33:23;;;;;;;1.35;0.70;;;;;;;;;;6135298;23;20098;-74
2023/03/12 00:35:48;;;;;;;1.25;0.70;;;;;;;;;;6135296;23;20026;-76
2023/03/12 00:38:14;;;;;;;1.00;0.68;;;;;;;;;;6135269;23;19998;-74
2023/03/12 00:40:39;;;;;;;0.63;0.63;;;;;;;;;;6135165;23;20002;-74
2023/03/12 00:43:05;;;;;;;1.13;0.70;;;;;;;;;;6134933;23;20313;-74
2023/03/12 00:45:30;;;;;;;0.77;0.60;;;;;;;;;;6135269;23;20225;-74
2023/03/12 00:47:55;;;;;;;1.30;0.60;;;;;;;;;;6135106;23;20005;-74
2023/03/12 00:50:21;;;;;;;0.88;0.70;;;;;;;;;;6134902;23;20301;-75
2023/03/12 00:52:47;;;;;;;1.20;0.70;;;;;;;;;;6135105;23;19998;-73
2023/03/12 00:55:12;;;;;;;1.02;0.60;;;;;;;;;;6135147;23;19998;-74
2023/03/12 00:57:37;;;;;;;0.60;0.60;;;;;;;;;;6134967;23;19998;-75
2023/03/12 01:00:08;;;;;;;1.38;0.60;;;;;;;;;;6134820;23;20017;-74
2023/03/12 01:02:34;;;;;;;1.35;0.60;;;;;;;;;;6135190;23;19994;-74
2023/03/12 01:04:59;;;;;;;2.78;0.65;;;;;;;;;;6134874;23;20029;-73
2023/03/12 01:07:25;;;;;;;1.10;0.57;;;;;;;;;;6134772;23;19997;-74
2023/03/12 01:09:50;;;;;;;0.88;0.60;;;;;;;;;;6134681;23;20328;-74
2023/03/12 01:12:15;;;;;;;0.88;0.60;;;;;;;;;;6134445;23;19998;-74
2023/03/12 01:14:41;;;;;;;1.55;0.63;;;;;;;;;;6108828;23;20205;-74
2023/03/12 01:17:06;;;;;;;0.47;0.38;;;;;;;;;;6135027;23;19998;-73
2023/03/12 01:19:32;;;;;;;1.13;0.50;;;;;;;;;;6108317;23;20011;-73
2023/03/12 01:21:57;;;;;;;0.55;0.40;;;;;;;;;;6133974;23;20002;-74
2023/03/12 01:24:22;;;;;;;0.40;0.35;;;;;;;;;;6133775;23;19998;-74
2023/03/12 01:26:48;;;;;;;0.88;0.50;;;;;;;;;;6133358;23;20032;-74
2023/03/12 01:29:13;;;;;;;1.38;0.45;;;;;;;;;;6133806;23;19998;-74
2023/03/12 01:31:39;;;;;;;0.95;0.50;;;;;;;;;;6107558;23;20005;-74
2023/03/12 01:34:04;;;;;;;0.40;0.40;;;;;;;;;;6134388;23;20009;-74
2023/03/12 01:36:30;;;;;;;0.80;0.40;;;;;;;;;;6134638;23;20301;-75
2023/03/12 01:38:57;;;;;;;0.50;0.40;;;;;;;;;;6134339;23;20005;-74
2023/03/12 01:41:26;;;;;;;0.32;0.32;;;;;;;;;;6134448;23;20304;-75
2023/03/12 01:43:51;;;;;;;0.93;0.40;;;;;;;;;;6133756;23;20002;-75
2023/03/12 01:46:29;;;;;;;0.70;0.40;;;;;;;;;;6134634;23;20001;-73
2023/03/12 01:49:18;;;;;;;0.35;0.25;;;;;;;;;;6133723;23;20008;-74
2023/03/12 01:51:51;;;;;;;0.70;0.45;;;;;;;;;;6133615;23;20340;-75
2023/03/12 01:54:24;;;;;;;0.40;0.30;;;;;;;;;;6134457;23;20001;-75
2023/03/12 01:56:50;;;;;;;1.30;0.38;;;;;;;;;;6133654;23;20001;-74
2023/03/12 01:59:38;;;;;;;0.55;0.30;;;;;;;;;;6134158;23;20013;-73
2023/03/12 02:02:05;;;;;;;1.70;0.30;;;;;;;;;;6134424;23;20013;-73
2023/03/12 02:04:32;;;;;;;0.30;0.25;;;;;;;;;;6134502;23;19998;-73
2023/03/12 02:07:07;;;;;;;0.68;0.30;;;;;;;;;;6134501;23;20002;-74
2023/03/12 02:09:35;;;;;;;1.00;0.60;;;;;;;;;;6134401;23;20046;-74
2023/03/12 02:12:00;;;;;;;0.52;0.30;;;;;;;;;;6134209;23;20061;-74
2023/03/12 02:14:26;;;;;;;0.43;0.38;;;;;;;;;;6134493;23;20037;-74
2023/03/12 02:16:52;;;;;;;0.30;0.30;;;;;;;;;;6134494;23;20093;-74
2023/03/12 02:19:41;;;;;;;0.90;0.30;;;;;;;;;;6134418;23;20281;-73
2023/03/12 02:22:07;;;;;;;0.70;0.20;;;;;;;;;;6134455;23;20002;-73
2023/03/12 02:24:44;;;;;;;0.38;0.30;;;;;;;;;;6134358;23;20041;-75
2023/03/12 02:27:10;;;;;;;0.20;0.20;;;;;;;;;;6134018;23;20427;-73
2023/03/12 02:29:39;;;;;;;0.65;0.40;;;;;;;;;;6133945;23;20049;-75
2023/03/12 02:32:06;;;;;;;2.92;0.40;;;;;;;;;;6132938;23;19997;-73
2023/03/12 02:34:31;;;;;;;0.82;0.47;;;;;;;;;;6133762;23;20053;-73
2023/03/12 02:36:57;;;;;;;1.02;0.38;;;;;;;;;;6133843;23;20010;-75
2023/03/12 02:39:22;;;;;;;0.30;0.30;;;;;;;;;;6134086;23;20320;-74
2023/03/12 02:41:52;;;;;;;0.40;0.15;;;;;;;;;;6133882;23;20002;-75
2023/03/12 02:44:21;;;;;;;0.10;0.10;;;;;;;;;;6134264;23;19994;-77
2023/03/12 02:46:52;;;;;;;0.30;0.20;;;;;;;;;;6134299;23;20026;-74
2023/03/12 02:49:19;;;;;;;0.52;0.20;;;;;;;;;;6133934;23;19994;-74
2023/03/12 02:51:45;;;;;;;0.17;0.17;;;;;;;;;;6133694;23;20342;-74
2023/03/12 02:54:12;;;;;;;1.27;0.20;;;;;;;;;;6134033;23;20293;-76
2023/03/12 02:56:39;;;;;;;1.13;0.20;;;;;;;;;;6133642;23;20031;-74
2023/03/12 02:59:05;;;;;;;0.20;0.10;;;;;;;;;;6133843;23;20017;-74
2023/03/12 03:01:33;;;;;;;0.20;0.17;;;;;;;;;;6133980;23;20026;-76
2023/03/12 03:03:59;;;;;;;0.15;0.13;;;;;;;;;;6134330;23;20029;-75
2023/03/12 03:06:25;;;;;;;0.25;0.15;;;;;;;;;;6133873;23;20013;-74
2023/03/12 03:08:50;;;;;;;0.90;0.10;;;;;;;;;;6133564;23;19998;-73
2023/03/12 03:11:16;;;;;;;0.57;0.17;;;;;;;;;;6131807;23;20017;-74
2023/03/12 03:13:42;;;;;;;0.43;0.20;;;;;;;;;;6132911;23;20050;-73
2023/03/12 03:16:07;;;;;;;0.38;0.20;;;;;;;;;;6133223;23;20290;-74
2023/03/12 03:18:32;;;;;;;0.20;0.15;;;;;;;;;;6133527;23;20009;-73
2023/03/12 03:21:05;;;;;;;0.25;0.10;;;;;;;;;;6133680;23;20032;-74
2023/03/12 03:23:31;;;;;;;0.40;0.20;;;;;;;;;;6133535;23;20310;-74
2023/03/12 03:25:58;;;;;;;0.30;0.20;;;;;;;;;;6133890;23;20301;-73
2023/03/12 03:28:25;;;;;;;0.55;0.10;;;;;;;;;;6133570;23;20002;-74
2023/03/12 03:31:00;;;;;;;0.32;0.10;;;;;;;;;;6133539;23;20009;-73
2023/03/12 03:33:25;;;;;;;0.47;0.20;;;;;;;;;;6133772;23;20174;-73
2023/03/12 03:35:51;;;;;;;2.60;0.30;;;;;;;;;;6133790;23;20308;-74
2023/03/12 03:38:16;;;;;;;0.15;0.10;;;;;;;;;;6133561;23;20001;-74
2023/03/12 03:40:42;;;;;;;0.43;0.20;;;;;;;;;;6133176;23;20159;-73
2023/03/12 03:43:07;;;;;;;0.57;0.20;;;;;;;;;;6133496;23;19998;-73
2023/03/12 03:45:33;;;;;;;0.30;0.20;;;;;;;;;;6133240;23;20264;-75
2023/03/12 03:47:58;;;;;;;0.68;0.20;;;;;;;;;;6132410;23;20293;-73
2023/03/12 03:50:24;;;;;;;0.20;0.20;;;;;;;;;;6132312;23;20005;-73
2023/03/12 03:52:49;;;;;;;0.20;0.20;;;;;;;;;;6132678;23;20210;-74
2023/03/12 03:55:15;;;;;;;1.13;0.40;;;;;;;;;;6133432;23;20057;-74
2023/03/12 03:57:40;;;;;;;0.95;0.38;;;;;;;;;;6132395;23;20005;-74
2023/03/12 04:00:08;;;;;;;0.68;0.32;;;;;;;;;;6131863;23;20046;-75
2023/03/12 04:02:34;;;;;;;0.68;0.40;;;;;;;;;;6134587;23;20005;-75
2023/03/12 04:05:00;;;;;;;0.82;0.30;;;;;;;;;;6134948;23;20013;-75
2023/03/12 04:07:27;;;;;;;2.10;0.30;;;;;;;;;;6135214;23;20026;-74
2023/03/12 04:09:53;;;;;;;4.78;0.70;;;;;;;;;;6135055;23;19998;-74
2023/03/12 04:12:19;;;;;;;4.55;1.08;;;;;;;;;;6134780;23;19994;-75
2023/03/12 04:14:45;;;;;;;8.30;1.10;;;;;;;;;;6135725;23;20049;-74
2023/03/12 04:17:10;;;;;;;7.15;1.05;;;;;;;;;;6109306;23;20001;-74
2023/03/12 04:19:36;;;;;;;7.68;1.50;;;;;;;;;;6135438;23;20341;-74
2023/03/12 04:22:01;;;;;;;9.15;1.23;;;;;;;;;;6135203;23;20050;-73
2023/03/12 04:24:27;;;;;;;10.43;1.38;;;;;;;;;;6135045;23;20062;-74
2023/03/12 04:26:52;;;;;;;8.95;1.38;;;;;;;;;;6134534;23;19998;-74
2023/03/12 04:29:18;;;;;;;13.02;1.85;;;;;;;;;;6134485;23;20029;-74
2023/03/12 04:31:44;;;;;;;8.82;1.52;;;;;;;;;;6133693;23;20500;-70
2023/03/12 04:34:10;;;;;;;10.00;1.50;;;;;;;;;;6135004;23;20001;-74
2023/03/12 04:36:35;;;;;;;8.00;1.35;;;;;;;;;;6134169;23;20392;-73
2023/03/12 04:39:01;;;;;;;7.65;1.80;;;;;;;;;;6133920;23;20002;-73
2023/03/12 04:41:26;;;;;;;10.15;1.33;;;;;;;;;;6133881;23;20009;-73
2023/03/12 04:43:52;;;;;;;11.65;2.03;;;;;;;;;;6134716;23;20305;-73
2023/03/12 04:46:17;;;;;;;9.82;1.95;;;;;;;;;;6135028;23;19998;-73
2023/03/12 04:48:43;;;;;;;9.70;1.40;;;;;;;;;;6134703;23;20010;-75
2023/03/12 04:51:09;;;;;;;10.02;1.52;;;;;;;;;;6134601;23;20001;-72
2023/03/12 04:53:34;;;;;;;8.18;1.13;;;;;;;;;;6109091;23;20010;-73
2023/03/12 04:55:59;;;;;;;11.20;1.70;;;;;;;;;;6135131;23;20002;-72
2023/03/12 04:58:25;;;;;;;10.13;1.40;;;;;;;;;;6134321;23;20029;-73
2023/03/12 05:00:50;;;;;;;9.15;1.55;;;;;;;;;;6135140;23;20002;-72
2023/03/12 05:03:17;;;;;;;10.95;1.70;;;;;;;;;;6135082;23;20026;-75
2023/03/12 05:05:42;;;;;;;9.00;1.48;;;;;;;;;;6135063;23;20006;-74
2023/03/12 05:08:07;;;;;;;15.35;2.00;;;;;;;;;;6135220;23;20005;-73
2023/03/12 05:10:33;;;;;;;10.85;1.50;;;;;;;;;;6134925;23;20391;-74
2023/03/12 05:12:58;;;;;;;7.53;1.48;;;;;;;;;;6133218;23;20305;-74
2023/03/12 05:15:24;;;;;;;10.82;1.55;;;;;;;;;;6133647;23;20005;-73
2023/03/12 05:17:49;;;;;;;7.60;1.50;;;;;;;;;;6134236;23;20022;-73
2023/03/12 05:20:16;;;;;;;11.10;1.70;;;;;;;;;;6134622;23;20010;-73
2023/03/12 05:22:42;;;;;;;10.18;1.42;;;;;;;;;;6134772;23;19997;-73
2023/03/12 05:25:08;;;;;;;6.65;1.23;;;;;;;;;;6135098;23;20009;-73
2023/03/12 05:27:34;;;;;;;6.93;1.20;;;;;;;;;;6134095;23;20018;-73
2023/03/12 05:29:59;;;;;;;8.90;1.70;;;;;;;;;;6133737;23;20033;-72
2023/03/12 05:32:25;;;;;;;10.48;1.45;;;;;;;;;;6134485;23;20018;-73
2023/03/12 05:34:50;;;;;;;12.50;1.80;;;;;;;;;;6134758;23;20001;-73
2023/03/12 05:37:16;;;;;;;7.97;1.30;;;;;;;;;;6135008;23;20065;-73
2023/03/12 05:39:45;;;;;;;12.38;1.67;;;;;;;;;;6134809;23;20008;-73
2023/03/12 05:42:12;;;;;;;8.20;1.52;;;;;;;;;;6134383;23;20002;-73
2023/03/12 05:44:37;;;;;;;8.80;1.50;;;;;;;;;;6134724;23;20005;-72
2023/03/12 05:47:03;;;;;;;9.88;1.83;;;;;;;;;;6134287;23;20031;-73
2023/03/12 05:49:29;;;;;;;9.15;1.60;;;;;;;;;;6134012;23;20057;-73
2023/03/12 05:51:55;;;;;;;9.85;1.75;;;;;;;;;;6134350;23;19998;-73
2023/03/12 05:54:20;;;;;;;11.38;1.40;;;;;;;;;;6134742;23;20004;-75
2023/03/12 05:56:45;;;;;;;8.88;1.50;;;;;;;;;;6134549;23;19998;-74
2023/03/12 05:59:11;;;;;;;5.75;1.33;;;;;;;;;;6134066;23;20439;-74
2023/03/12 06:01:36;;;;;;;9.88;1.70;;;;;;;;;;6133976;23;20005;-74
2023/03/12 06:04:02;;;;;;;7.93;1.50;;;;;;;;;;6133792;23;19994;-75
2023/03/12 06:06:33;;;;;;;8.05;1.40;;;;;;;;;;6133954;23;20005;-74
2023/03/12 06:08:59;;;;;;;9.85;1.73;;;;;;;;;;6133571;23;19993;-74
2023/03/12 06:11:24;;;;;;;8.45;1.50;;;;;;;;;;6134098;23;20193;-74
2023/03/12 06:13:50;;;;;;;10.18;1.52;;;;;;;;;;6134268;23;19998;-74
2023/03/12 06:16:19;;;;;;;15.60;1.58;;;;;;;;;;6134505;23;20289;-73
2023/03/12 06:18:45;;;;;;;9.82;1.50;;;;;;;;;;6134366;23;20002;-73
2023/03/12 06:21:16;;;;;;;7.03;1.30;;;;;;;;;;6134340;23;20022;-73
2023/03/12 06:23:43;;;;;;;8.95;1.48;;;;;;;;;;6134312;23;20053;-74
2023/03/12 06:26:10;;;;;;;11.77;1.90;;;;;;;;;;6134372;23;20054;-73
2023/03/12 06:28:35;;;;;;;9.45;1.80;;;;;;;;;;6134164;23;20012;-73
2023/03/12 06:31:01;;;;;;;8.75;1.35;;;;;;;;;;6134207;23;19994;-74
2023/03/12 06:33:27;;;;;;;11.25;1.70;;;;;;;;;;6134219;23;20002;-73
2023/03/12 06:35:55;;;;;;;8.52;1.38;;;;;;;;;;6134274;23;19993;-74
2023/03/12 06:38:20;;;;;;;7.90;1.42;;;;;;;;;;6108083;23;20025;-74
2023/03/12 06:40:56;;;;;;;10.57;2.00;;;;;;;;;;6134134;23;20002;-74
2023/03/12 06:43:23;;;;;;;9.02;1.60;;;;;;;;;;6133669;23;20119;-81
2023/03/12 06:45:48;;;;;;;9.05;1.40;;;;;;;;;;6134079;23;20002;-70
2023/03/12 06:48:13;;;;;;;8.15;1.40;;;;;;;;;;6134297;23;19998;-71
2023/03/12 06:50:39;;;;;;;19.63;1.73;;;;;;;;;;6134219;23;20002;-70
2023/03/12 06:53:04;;;;;;;13.57;1.75;;;;;;;;;;6134032;23;20286;-72
2023/03/12 06:55:29;;;;;;;7.03;1.27;;;;;;;;;;6134125;23;20002;-70
2023/03/12 06:57:55;;;;;;;10.57;1.48;;;;;;;;;;6133773;23;20498;-75
2023/03/12 07:00:21;;;;;;;6.47;1.30;;;;;;;;;;6133877;23;20005;-73
2023/03/12 07:02:46;;;;;;;9.70;1.65;;;;;;;;;;6133781;23;19998;-70
2023/03/12 07:05:11;;;;;;;10.15;1.50;;;;;;;;;;6134080;23;20009;-75
2023/03/12 07:07:37;;;;;;;9.18;1.58;;;;;;;;;;6134123;23;19998;-73
2023/03/12 07:10:05;;;;;;;9.38;1.42;;;;;;;;;;6133966;23;20037;-73
2023/03/12 07:12:31;;;;;;;7.97;1.48;;;;;;;;;;6133635;23;20013;-73
2023/03/12 07:14:57;;;;;;;8.55;1.35;;;;;;;;;;6133887;23;20013;-73
2023/03/12 07:17:23;;;;;;;8.48;1.45;;;;;;;;;;6133817;23;20025;-73
2023/03/12 07:19:48;;;;;;;10.52;1.48;;;;;;;;;;6133438;23;20006;-73
2023/03/12 07:22:14;;;;;;;8.52;1.40;;;;;;;;;;6133647;23;20044;-73
2023/03/12 07:24:39;;;;;;;7.22;1.40;;;;;;;;;;6133082;23;19994;-74
2023/03/12 07:27:05;;;;;;;7.93;1.40;;;;;;;;;;6133062;23;20012;-73
2023/03/12 07:29:30;;;;;;;8.98;1.55;;;;;;;;;;6133165;23;20189;-71
2023/03/12 07:31:55;;;;;;;5.47;1.20;;;;;;;;;;6133526;23;20002;-72
2023/03/12 07:34:21;;;;;;;7.85;1.20;;;;;;;;;;6133527;23;20005;-74
2023/03/12 07:36:46;;;;;;;9.07;1.50;;;;;;;;;;6133541;23;20186;-73
2023/03/12 07:39:11;;;;;;;7.88;1.50;;;;;;;;;;6133945;23;20009;-76
2023/03/12 07:41:37;;;;;;;9.02;1.45;;;;;;;;;;6133774;23;20006;-71
2023/03/12 07:44:03;;;;;;;9.77;1.40;;;;;;;;;;6134149;23;20021;-76
2023/03/12 07:46:29;;;;;;;7.13;1.48;;;;;;;;;;6133879;23;20024;-76
2023/03/12 07:48:55;;;;;;;8.00;1.40;;;;;;;;;;6133770;23;19998;-73
2023/03/12 07:51:20;;;;;;;9.05;1.52;;;;;;;;;;6133689;23;20014;-75
2023/03/12 07:53:46;;;;;;;6.78;1.52;;;;;;;;;;6133521;23;19994;-75
2023/03/12 07:56:11;;;;;;;8.20;1.42;;;;;;;;;;6131692;23;20121;-74
2023/03/12 07:58:37;;;;;;;7.82;1.20;;;;;;;;;;6133117;23;20006;-75
2023/03/12 08:01:03;;;;;;;7.38;1.40;;;;;;;;;;6133538;23;20026;-74
2023/03/12 08:03:29;;;;;;;6.05;1.27;;;;;;;;;;6133611;23;20195;-74
2023/03/12 08:06:00;;;;;;;7.18;1.42;;;;;;;;;;6133576;23;20004;-74
2023/03/12 08:08:25;;;;;;;;;;;;;;;;;;6134014;23;20193;-77
2023/03/12 08:10:51;;;;;;;8.02;1.65;;;;;;;;;;6132770;23;20200;-74
2023/03/12 08:13:17;;;;;;;8.00;1.80;;;;;;;;;;6131817;23;20002;-71
2023/03/12 08:15:43;;;;;;;8.85;1.95;;;;;;;;;;6132828;23;20009;-71
2023/03/12 08:18:08;;;;;;;7.85;1.70;;;;;;;;;;6131143;23;20010;-70
2023/03/12 08:20:34;;;;;;;6.15;1.80;;;;;;;;;;6130919;23;20017;-70
2023/03/12 08:22:59;;;;;;;10.88;2.00;;;;;;;;;;6123500;23;20087;-82
2023/03/12 08:25:25;;;;;;;8.70;1.83;;;;;;;;;;6120850;23;20029;-76
2023/03/12 08:27:50;;;;;;;7.57;1.67;;;;;;;;;;6122154;23;20006;-83
2023/03/12 08:30:16;;;;;;;7.38;1.77;;;;;;;;;;6122006;23;20010;-76
2023/03/12 08:32:42;;;;;;;6.75;1.65;;;;;;;;;;6124471;23;20359;-77
2023/03/12 08:35:08;;;;;;;7.75;1.42;;;;;;;;;;6122115;23;20008;-77
2023/03/12 08:37:34;;;;;;;5.88;1.17;;;;;;;;;;6124480;23;20447;-73
2023/03/12 08:40:00;;;;;;;5.25;1.30;;;;;;;;;;6122352;23;20509;-80
2023/03/12 08:42:25;;;;;;;6.00;1.40;;;;;;;;;;6122253;23;20036;-78
2023/03/12 08:44:51;;;;;;;3.53;1.10;;;;;;;;;;6122059;23;20085;-82
2023/03/12 08:47:16;;;;;;;4.93;1.15;;;;;;;;;;6122591;23;20002;-77
2023/03/12 08:49:41;;;;;;;5.03;1.45;;;;;;;;;;6123733;23;20494;-77
2023/03/12 08:52:07;;;;;;;3.97;1.40;;;;;;;;;;6127089;23;20017;-79
2023/03/12 08:54:32;;;;;;;5.22;1.58;;;;;;;;;;6123899;23;20006;-74
2023/03/12 08:56:58;;;;;;;4.63;1.60;;;;;;;;;;6134495;23;20005;-77
2023/03/12 08:59:23;;;;;;;5.30;1.90;;;;;;;;;;6134837;23;20036;-75
2023/03/12 09:01:49;;;;;;;6.20;1.80;;;;;;;;;;6133896;23;20036;-76
2023/03/12 09:04:15;;;;;;;5.43;1.77;;;;;;;;;;6133299;23;20006;-75
2023/03/12 09:06:40;;;;;;;7.70;2.90;;;;;;;;;;6128380;23;20006;-75
2023/03/12 09:09:07;;;;;;;4.55;2.17;;;;;;;;;;6124291;23;20358;-74
2023/03/12 09:11:35;;;;;;;4.70;1.50;;;;;;;;;;6123987;23;20423;-77
2023/03/12 09:14:01;;;;;;;5.90;1.50;;;;;;;;;;6125047;23;20005;-75
2023/03/12 09:16:26;;;;;;;3.95;1.65;;;;;;;;;;6132647;23;19998;-77
2023/03/12 09:18:52;;;;;;;7.15;1.92;;;;;;;;;;6133574;23;20008;-76
2023/03/12 09:21:17;;;;;;;5.28;1.58;;;;;;;;;;6133656;23;20010;-77
2023/03/12 09:23:43;;;;;;;5.50;1.52;;;;;;;;;;6133329;23;20006;-75
2023/03/12 09:26:12;;;;;;;8.52;1.70;;;;;;;;;;6133572;23;20002;-76
2023/03/12 09:28:37;;;;;;;5.47;1.65;;;;;;;;;;6133244;23;19998;-76
2023/03/12 09:31:04;;;;;;;5.93;1.63;;;;;;;;;;6133602;23;20061;-76
2023/03/12 09:33:30;;;;;;;4.05;1.35;;;;;;;;;;6133342;23;20006;-75
2023/03/12 09:35:57;;;;;;;4.07;1.40;;;;;;;;;;6133414;23;20057;-76
2023/03/12 09:38:23;;;;;;;2.90;1.10;;;;;;;;;;6133668;23;20163;-76
2023/03/12 09:40:48;;;;;;;4.10;1.38;;;;;;;;;;6107601;23;20005;-75
2023/03/12 09:43:31;;;;;;;2.60;1.10;;;;;;;;;;6132756;23;20077;-74
2023/03/12 09:45:57;;;;;;;5.22;1.10;;;;;;;;;;6133788;23;20105;-74
2023/03/12 09:48:35;;;;;;;2.58;1.00;;;;;;;;;;6133427;23;20002;-75
2023/03/12 09:51:16;;;;;;;3.47;1.08;;;;;;;;;;6130852;23;20025;-74
2023/03/12 09:53:46;;;;;;;;;;;;;;;;;;6133474;23;20060;-74
2023/03/12 09:56:22;;;;;;;1.90;1.00;;;;;;;;;;6133501;23;19905;-74
2023/03/12 09:58:49;;;;;;;2.05;1.00;;;;;;;;;;6125125;23;20018;-73
2023/03/12 10:01:48;;;;;;;2.38;0.90;;;;;;;;;;6124896;23;20335;-74
2023/03/12 10:04:37;;;;;;;1.92;1.00;;;;;;;;;;6125698;23;20332;-75
2023/03/12 10:07:31;;;;;;;1.98;0.70;;;;;;;;;;6122571;23;20771;-74
2023/03/12 10:10:42;;;;;;;2.50;0.80;;;;;;;;;;6126380;23;20033;-75
2023/03/12 10:13:32;;;;;;;1.48;0.63;;;;;;;;;;6120797;23;20006;-74
2023/03/12 10:16:09;;;;;;;1.58;0.65;;;;;;;;;;6133049;23;20002;-75
2023/03/12 10:18:53;;;;;;;1.20;0.80;;;;;;;;;;6131813;23;20013;-77
2023/03/12 10:21:25;;;;;;;3.00;0.60;;;;;;;;;;6132809;23;20069;-77
2023/03/12 10:24:15;;;;;;;1.10;0.60;;;;;;;;;;6131838;23;20049;-77
2023/03/12 10:26:54;;;;;;;2.35;0.70;;;;;;;;;;6104650;23;20081;-76
2023/03/12 10:29:26;;;;;;;1.92;0.70;;;;;;;;;;6130766;23;20053;-77
2023/03/12 10:32:15;;;;;;;1.00;0.70;;;;;;;;;;6127172;23;20001;-77
2023/03/12 10:34:53;;;;;;;2.45;1.20;;;;;;;;;;6131934;23;20376;-78
2023/03/12 10:37:23;;;;;;;1.65;0.70;;;;;;;;;;6106694;23;20017;-78
2023/03/12 10:39:49;;;;;;;1.08;0.80;;;;;;;;;;6132374;23;20006;-78
2023/03/12 10:42:18;;;;;;;1.85;0.75;;;;;;;;;;6131363;23;20013;-78
2023/03/12 10:44:55;;;;;;;1.67;1.00;;;;;;;;;;6123444;23;20002;-75
2023/03/12 10:47:30;;;;;;;1.00;0.60;;;;;;;;;;6128309;23;20002;-81
2023/03/12 10:50:10;;;;;;;1.05;0.70;;;;;;;;;;6122901;23;20002;-77
2023/03/12 10:52:35;;;;;;;1.17;0.80;;;;;;;;;;6118806;23;20014;-77
2023/03/12 10:55:20;;;;;;;0.80;0.65;;;;;;;;;;6119640;23;20147;-78
2023/03/12 10:57:46;;;;;;;1.20;0.63;;;;;;;;;;6119083;23;20001;-77
2023/03/12 11:00:21;;;;;;;1.52;0.77;;;;;;;;;;6120260;23;20426;-77
2023/03/12 11:03:02;;;;;;;0.63;0.57;;;;;;;;;;6092612;23;20094;-76
2023/03/12 11:05:48;;;;;;;0.60;0.60;;;;;;;;;;6120807;23;20002;-76
2023/03/12 11:08:26;;;;;;;1.92;0.80;;;;;;;;;;6121227;23;20002;-76
2023/03/12 11:10:52;;;;;;;1.15;0.80;;;;;;;;;;6122848;23;20005;-75
2023/03/12 11:13:30;;;;;;;1.13;0.80;;;;;;;;;;6122218;23;20001;-76
2023/03/12 11:16:16;;;;;;;2.75;0.77;;;;;;;;;;6122528;23;20455;-76
2023/03/12 11:19:02;;;;;;;2.60;1.15;;;;;;;;;;6106524;23;20013;-75
2023/03/12 11:21:30;;;;;;;1.38;0.85;;;;;;;;;;6122669;23;20073;-77
2023/03/12 11:23:55;;;;;;;0.65;0.65;;;;;;;;;;6122174;23;20020;-77
2023/03/12 11:26:30;;;;;;;1.60;0.52;;;;;;;;;;6121999;23;20358;-75
2023/03/12 11:29:01;;;;;;;1.17;0.52;;;;;;;;;;6122295;23;20002;-75
2023/03/12 11:31:36;;;;;;;1.80;0.70;;;;;;;;;;6122668;23;20012;-75
2023/03/12 11:34:12;;;;;;;0.88;0.50;;;;;;;;;;6122471;23;20028;-76
2023/03/12 11:37:05;;;;;;;1.23;0.60;;;;;;;;;;6122787;23;20008;-74
2023/03/12 11:39:48;;;;;;;3.10;0.63;;;;;;;;;;6122172;23;20006;-74
2023/03/12 11:42:39;;;;;;;1.13;0.60;;;;;;;;;;6122159;23;20030;-74
2023/03/12 11:45:22;;;;;;;1.00;0.60;;;;;;;;;;6122141;23;20035;-75
2023/03/12 11:47:53;;;;;;;0.95;0.50;;;;;;;;;;6122483;23;20090;-74
2023/03/12 11:50:43;;;;;;;1.15;0.75;;;;;;;;;;6122501;23;20304;-74
2023/03/12 11:53:22;;;;;;;2.07;0.90;;;;;;;;;;6122474;23;20006;-75
2023/03/12 11:56:13;;;;;;;1.85;0.75;;;;;;;;;;6096344;23;20005;-74
2023/03/12 11:58:51;;;;;;;1.00;0.70;;;;;;;;;;6114455;23;20025;-75
2023/03/12 12:01:29;;;;;;;1.20;0.50;;;;;;;;;;6122193;23;20109;-74
2023/03/12 12:04:19;;;;;;;1.00;0.40;;;;;;;;;;6095974;23;20316;-74
2023/03/12 12:06:54;;;;;;;1.45;0.50;;;;;;;;;;6122577;23;20006;-74
2023/03/12 12:09:23;;;;;;;1.40;0.70;;;;;;;;;;6122324;23;20006;-76
2023/03/12 12:12:13;;;;;;;1.52;0.50;;;;;;;;;;6096395;23;20057;-74
2023/03/12 12:14:55;;;;;;;0.40;0.40;;;;;;;;;;6121840;23;20010;-74
2023/03/12 12:17:50;;;;;;;0.65;0.50;;;;;;;;;;6122305;23;20006;-75
2023/03/12 12:20:25;;;;;;;0.77;0.55;;;;;;;;;;6114563;23;20017;-75
2023/03/12 12:22:59;;;;;;;0.65;0.50;;;;;;;;;;6123622;23;20010;-75
2023/03/12 12:25:37;;;;;;;1.52;0.50;;;;;;;;;;6123975;23;20009;-73
2023/03/12 12:28:24;;;;;;;0.60;0.50;;;;;;;;;;6124208;23;20331;-74
2023/03/12 12:31:03;;;;;;;1.17;0.47;;;;;;;;;;6124322;23;20036;-73
2023/03/12 12:34:06;;;;;;;1.13;0.47;;;;;;;;;;6123920;23;20013;-75
2023/03/12 12:36:33;;;;;;;1.48;0.60;;;;;;;;;;6123832;23;20065;-76
2023/03/12 12:39:07;;;;;;;0.50;0.40;;;;;;;;;;6123716;23;20040;-75
2023/03/12 12:41:37;;;;;;;0.98;0.50;;;;;;;;;;6123935;23;20057;-76
2023/03/12 12:44:11;;;;;;;0.68;0.50;;;;;;;;;;6123946;23;20006;-75
2023/03/12 12:46:41;;;;;;;0.47;0.47;;;;;;;;;;6097836;23;20041;-76
2023/03/12 12:49:18;;;;;;;0.55;0.40;;;;;;;;;;6123797;23;20009;-78
2023/03/12 12:51:52;;;;;;;0.60;0.40;;;;;;;;;;6123837;23;20057;-75
2023/03/12 12:54:26;;;;;;;0.38;0.30;;;;;;;;;;6123587;23;20351;-76
2023/03/12 12:57:17;;;;;;;0.40;0.30;;;;;;;;;;6123526;23;20040;-75
2023/03/12 12:59:56;;;;;;;;;;;;;;;;;;6124131;23;20013;-75
2023/03/12 13:02:26;;;;;;;1.13;0.50;;;;;;;;;;6124303;23;19917;-76
2023/03/12 13:04:56;;;;;;;0.22;0.22;;;;;;;;;;6123610;23;20013;-75
2023/03/12 13:07:21;;;;;;;0.77;0.50;;;;;;;;;;6123914;23;20225;-76
2023/03/12 13:09:52;;;;;;;1.15;0.40;;;;;;;;;;6123639;23;20010;-76
2023/03/12 13:12:31;;;;;;;1.38;0.40;;;;;;;;;;6097462;23;19998;-76
2023/03/12 13:14:58;;;;;;;0.47;0.40;;;;;;;;;;6123190;23;20002;-75
2023/03/12 13:17:34;;;;;;;1.08;0.75;;;;;;;;;;6123923;23;20319;-76
2023/03/12 13:20:09;;;;;;;1.02;0.40;;;;;;;;;;6097708;23;20010;-77
2023/03/12 13:23:13;;;;;;;0.50;0.35;;;;;;;;;;6124110;23;20057;-75
2023/03/12 13:25:53;;;;;;;0.30;0.30;;;;;;;;;;6050228;23;20009;-75
2023/03/12 13:28:25;;;;;;;0.35;0.35;;;;;;;;;;6127843;23;20461;-76
2023/03/12 13:30:51;;;;;;;2.42;0.40;;;;;;;;;;6123415;23;20005;-75
2023/03/12 13:33:20;;;;;;;0.85;0.30;;;;;;;;;;6123767;23;20002;-74
2023/03/12 13:36:15;;;;;;;0.93;0.55;;;;;;;;;;6123053;23;20001;-75
2023/03/12 13:38:57;;;;;;;0.47;0.40;;;;;;;;;;6091987;23;20013;-74
2023/03/12 13:41:53;;;;;;;0.80;0.30;;;;;;;;;;6123475;23;20048;-75
2023/03/12 13:44:22;;;;;;;0.57;0.35;;;;;;;;;;6120592;23;20048;-74
2023/03/12 13:46:56;;;;;;;1.08;0.50;;;;;;;;;;6123497;23;20009;-75
2023/03/12 13:49:22;;;;;;;0.93;0.40;;;;;;;;;;6123206;23;20005;-76
2023/03/12 13:51:58;;;;;;;1.08;0.40;;;;;;;;;;6097341;23;20009;-75
2023/03/12 13:54:28;;;;;;;0.65;0.40;;;;;;;;;;6123495;23;20010;-76
2023/03/12 13:57:00;;;;;;;1.13;0.80;;;;;;;;;;6123097;23;20006;-75
2023/03/12 13:59:27;;;;;;;1.23;0.50;;;;;;;;;;6123025;23;20017;-76
2023/03/12 14:01:58;;;;;;;1.05;0.50;;;;;;;;;;6097480;23;20387;-76
2023/03/12 14:04:31;;;;;;;1.95;0.50;;;;;;;;;;6123205;23;20034;-75
2023/03/12 14:06:59;;;;;;;0.52;0.35;;;;;;;;;;6123085;23;20017;-75
2023/03/12 14:09:48;;;;;;;0.60;0.40;;;;;;;;;;6123452;23;20015;-76
2023/03/12 14:12:39;;;;;;;1.42;0.50;;;;;;;;;;6123181;23;20065;-77
2023/03/12 14:15:52;;;;;;;0.50;0.40;;;;;;;;;;6123079;23;20013;-76
2023/03/12 14:18:23;;;;;;;2.13;0.40;;;;;;;;;;5976870;24;20091;-75
2023/03/12 14:20:59;;;;;;;0.30;0.30;;;;;;;;;;6097483;23;20014;-75
2023/03/12 14:23:29;;;;;;;0.60;0.40;;;;;;;;;;6123443;23;20013;-74
2023/03/12 14:26:00;;;;;;;0.30;0.30;;;;;;;;;;6122753;23;20508;-74
2023/03/12 14:28:27;;;;;;;1.42;0.40;;;;;;;;;;6123083;23;20423;-77
2023/03/12 14:30:58;;;;;;;1.25;0.40;;;;;;;;;;6122931;23;20005;-76
2023/03/12 14:33:28;;;;;;;0.80;0.40;;;;;;;;;;6123228;23;20420;-75
2023/03/12 14:36:05;;;;;;;1.63;0.43;;;;;;;;;;6122707;23;20070;-76
2023/03/12 14:38:38;;;;;;;1.25;0.55;;;;;;;;;;6122995;23;20237;-76
2023/03/12 14:41:12;;;;;;;0.43;0.30;;;;;;;;;;6122722;23;20009;-78
2023/03/12 14:43:38;;;;;;;1.70;0.50;;;;;;;;;;6122717;23;20006;-76
2023/03/12 14:46:12;;;;;;;1.85;0.50;;;;;;;;;;6122346;23;20010;-75
2023/03/12 14:48:37;;;;;;;1.48;0.52;;;;;;;;;;6123026;23;20006;-76
2023/03/12 14:51:06;;;;;;;1.45;0.55;;;;;;;;;;6122330;23;20013;-75
2023/03/12 14:53:36;;;;;;;1.15;0.50;;;;;;;;;;6123343;23;20012;-75
2023/03/12 14:56:01;;;;;;;0.55;0.40;;;;;;;;;;6122612;23;20010;-76
2023/03/12 14:58:27;;;;;;;1.20;0.50;;;;;;;;;;6122399;23;20359;-75
2023/03/12 15:00:58;;;;;;;2.33;0.60;;;;;;;;;;6122527;23;20005;-75